KCHO

Charlottesville-Albemarle Airport

Charlottesville, Virginia, USA
METAR KCHO 151253Z 01004KT 10SM OVC036 M01/M09 A3005 RMK AO2 SLP178 T10111094
Observed Flight Rules
Dec-15 @ 12:53 UTC (56 minutes ago) Visual Flight Rules
Wind Visibility Clouds
10° at 4 knots 10 miles
  • Overcast at 3,600' AGL
Temperatures Readings
Current -1°C / 30°F
Dewpoint -9°C / 16°F
Humidity 55%
Altimeter 30.05" Hg
Pressure 1017.8 hPa
Elevation 192
METAR KCHO 151253Z 01004KT 10SM OVC036 M01/M09 A3005 RMK AO2 SLP178 T10111094
Observed Flight Rules
Dec-15 @ 12:53 UTC
(56 minutes ago)
VFR
Wind Visibility
10° at 4 knots 10 miles
Clouds
  • Overcast at 3,600' AGL
Temperature Dewpoint
-1°C / 30°F -9°C / 16°F
Humidity Altimeter Pressure
55% 30.05" Hg 1017.8 hPa